Rocky Mount, NC (27804)

1:59 AM EDT en Octubre 01, 2014 (GMT -0400)
City Lake - Rocky Mount | Change Station
CLOSE
Current Station
Estación meteorológica personal
Location: Rocky Mount, NC
Altura: 143 ft
Estaciones meteorológicas cercanas
Aviso en curso: Special Statement

Alt 143 ft 35.95 °N, 77.82 °W | Updated 28 seconds ago

Niebla
Niebla
63.5 ° F
Sensación térmica 63.5 ° F
N
0.0
Viento Variable Viento desde Norte
Gusts 0.0 mph

Hoy
Alta -- | Baja -- ° F
--% Posibilidad de precipitaciones
Ayer
Alta -- | Baja -- ° F
Precip. -- pul
7:06 AM 6:55 PM
Creciente, 44% visible
Presión 29.92 pul
Visibilidad 0.5 Millas
Nubes
Punto de rocío 61 ° F
Humedad 91%
Precipitaciones 0.00 pul
Espesor de la nieve No disponible.
UV No disponible.
Polen 4.30 de una escala de 12
PM2.5 Buena
Flu Activity No disponible.
METAR KRWI 010453Z AUTO 00000KT 1/2SM FG VV002 14/13 A2992 RMK AO2 SLP132 T01390133 402390139

More Conditions Fewer Conditions

Presión 29.92 pul
Visibilidad 0.5 Millas
Nubes
Punto de rocío 61 ° F
Humedad 91%
Precipitaciones 0.00 pul
Espesor de la nieve No disponible.
UV No disponible.
Polen 4.30 de una escala de 12
PM2.5 Buena
Flu Activity No disponible.
METAR KRWI 010453Z AUTO 00000KT 1/2SM FG VV002 14/13 A2992 RMK AO2 SLP132 T01390133 402390139

More Conditions Fewer Conditions

10-Day Weather Forecast

Almanac

Astronomía

Oct. 01, 2014 Salida Puesta
Hora real 7:06 AM EDT 6:55 PM EDT
Crepúsculo civil 6:40 AM EDT 7:20 PM EDT
Crepúsculo náutico 6:11 AM EDT 7:50 PM EDT
Crepúsculo astronómico 5:41 AM EDT 8:20 PM EDT
Luna 1:57 PM EDT Sin puesta de luna
Horas de luz 12h 39m
Horas de luz
11h 48m
Tomorrow will be 2m 15s shorter.
Creciente, 44% of the Moon is Illuminated
Hoy
Creciente
Oct 1
Cuarto creciente
Oct 8
Luna llena
Oct 15
Cuarto menguante
Oct 23
Nueva

Extremos de hoy

Máximos del estado Bajos del estado

Community

WunderPhotos

Upload Photos

1,757,875 ¡fotos cargadas!

Nearby

Calidad del aire

  Calidad del aire Índice AQ Contaminante
Ayer Buena
PM2.5
Real Buena
PM2.5
Miércoles Buena
OZONE
Miércoles Buena
PM2.5
Jueves Buena
OZONE
Jueves Buena
PM2.5
Viernes Buena
OZONE
Viernes Buena
PM2.5

Grosos de nieve

Estación Profundido Altura
No tenemos constancia de nieve nueva.

Actividad de terremotos

Ciudad Distance Mag. Tiempo y dato
No hay informes recientes de la actividad sísmica.
Magnitud mínima muestra es 2,5.

Temperaturas de aguas costeras

Lugar Temperatura
Sin partes meteorológicos de las estaciones

Estaciones meteorológicas cercanas